createdAt,value
2018-07-17T00:00:07.118Z,1.609344
2018-07-17T00:00:19.749Z,1.609344
2018-07-17T00:00:32.191Z,1.609344
2018-07-17T00:00:44.664Z,1.609344
2018-07-17T00:00:57.090Z,1.609344
2018-07-17T00:01:09.514Z,1.609344
2018-07-17T00:01:21.991Z,0
2018-07-17T00:01:34.422Z,1.609344
2018-07-17T00:01:46.830Z,3.218688
2018-07-17T00:01:59.578Z,3.218688
2018-07-17T00:02:12.011Z,3.218688
2018-07-17T00:02:24.604Z,1.609344
2018-07-17T00:02:37.010Z,3.218688
2018-07-17T00:02:49.425Z,1.609344
2018-07-17T00:03:01.874Z,3.218688
2018-07-17T00:03:14.333Z,1.609344
2018-07-17T00:03:26.775Z,3.218688
2018-07-17T00:03:39.180Z,1.609344
2018-07-17T00:03:51.621Z,3.218688
2018-07-17T00:04:04.039Z,1.609344
2018-07-17T00:04:16.439Z,1.609344
2018-07-17T00:04:28.843Z,1.609344
2018-07-17T00:04:41.236Z,1.609344
2018-07-17T00:04:53.863Z,4.828032
2018-07-17T00:05:06.275Z,1.609344
2018-07-17T00:05:18.676Z,1.609344
2018-07-17T00:05:31.166Z,1.609344
2018-07-17T00:05:43.567Z,4.828032
2018-07-17T00:05:55.981Z,1.609344
2018-07-17T00:06:08.388Z,1.609344
2018-07-17T00:06:20.799Z,1.609344
2018-07-17T00:06:33.197Z,3.218688
2018-07-17T00:06:45.608Z,3.218688
2018-07-17T00:06:58.041Z,1.609344
2018-07-17T00:07:10.458Z,3.218688
2018-07-17T00:07:22.989Z,3.218688
2018-07-17T00:07:35.385Z,1.609344
2018-07-17T00:07:47.785Z,1.609344
2018-07-17T00:08:00.183Z,3.218688
2018-07-17T00:08:12.741Z,3.218688
2018-07-17T00:08:25.164Z,3.218688
2018-07-17T00:08:37.609Z,3.218688
2018-07-17T00:08:50.013Z,3.218688
2018-07-17T00:09:02.435Z,1.609344
2018-07-17T00:09:14.843Z,1.609344
2018-07-17T00:09:27.232Z,0
2018-07-17T00:09:40.221Z,0
2018-07-17T00:09:53.397Z,3.218688
2018-07-17T00:10:05.811Z,3.218688
2018-07-17T00:10:18.223Z,1.609344
2018-07-17T00:10:30.616Z,1.609344
2018-07-17T00:10:43.089Z,3.218688
2018-07-17T00:10:55.487Z,1.609344
2018-07-17T00:11:08.077Z,3.218688
2018-07-17T00:11:20.546Z,3.218688
2018-07-17T00:11:32.946Z,1.609344
2018-07-17T00:11:45.359Z,1.609344
2018-07-17T00:11:57.765Z,1.609344
2018-07-17T00:12:10.330Z,3.218688
2018-07-17T00:12:22.741Z,3.218688
2018-07-17T00:12:35.327Z,1.609344
2018-07-17T00:12:48.448Z,1.609344
2018-07-17T00:13:01.757Z,1.609344
2018-07-17T00:13:14.168Z,1.609344
2018-07-17T00:13:26.580Z,4.828032
2018-07-17T00:13:39.044Z,3.218688
2018-07-17T00:13:51.488Z,1.609344
2018-07-17T00:14:03.895Z,1.609344
2018-07-17T00:14:16.285Z,1.609344
2018-07-17T00:14:28.680Z,6.437376
2018-07-17T00:14:41.083Z,6.437376
2018-07-17T00:14:53.499Z,6.437376
2018-07-17T00:15:05.911Z,4.828032
2018-07-17T00:15:18.374Z,3.218688
2018-07-17T00:15:30.803Z,1.609344
2018-07-17T00:15:43.205Z,3.218688
2018-07-17T00:15:55.631Z,3.218688
2018-07-17T00:16:08.053Z,3.218688
2018-07-17T00:16:20.531Z,3.218688
2018-07-17T00:16:32.998Z,4.828032
2018-07-17T00:16:45.414Z,4.828032
2018-07-17T00:16:57.876Z,4.828032
2018-07-17T00:17:10.282Z,4.828032
2018-07-17T00:17:22.682Z,3.218688
2018-07-17T00:17:35.089Z,3.218688
2018-07-17T00:17:47.559Z,3.218688
2018-07-17T00:17:59.978Z,3.218688
2018-07-17T00:18:12.391Z,3.218688
2018-07-17T00:18:24.780Z,1.609344
2018-07-17T00:18:37.196Z,1.609344
2018-07-17T00:18:49.590Z,1.609344
2018-07-17T00:19:01.989Z,1.609344
2018-07-17T00:19:14.403Z,1.609344
2018-07-17T00:19:26.815Z,3.218688
2018-07-17T00:19:39.224Z,3.218688
2018-07-17T00:19:51.641Z,1.609344
2018-07-17T00:20:04.042Z,3.218688
2018-07-17T00:20:16.454Z,3.218688
2018-07-17T00:20:28.864Z,1.609344
2018-07-17T00:20:41.349Z,1.609344
2018-07-17T00:20:53.746Z,3.218688
2018-07-17T00:21:06.234Z,1.609344
2018-07-17T00:21:18.642Z,1.609344
2018-07-17T00:21:31.087Z,3.218688
2018-07-17T00:21:43.517Z,3.218688
2018-07-17T00:21:55.932Z,1.609344
2018-07-17T00:22:08.348Z,1.609344
2018-07-17T00:22:20.733Z,3.218688
2018-07-17T00:22:33.158Z,8.04672
2018-07-17T00:22:45.559Z,8.04672
2018-07-17T00:22:57.973Z,6.437376
2018-07-17T00:23:10.373Z,8.04672
2018-07-17T00:23:22.824Z,6.437376
2018-07-17T00:23:35.231Z,3.218688
2018-07-17T00:23:47.719Z,3.218688
2018-07-17T00:24:00.141Z,1.609344
2018-07-17T00:24:12.552Z,1.609344
2018-07-17T00:24:24.942Z,3.218688
2018-07-17T00:24:37.346Z,3.218688
2018-07-17T00:24:49.754Z,3.218688
2018-07-17T00:25:02.175Z,3.218688
2018-07-17T00:25:14.618Z,3.218688
2018-07-17T00:25:27.034Z,1.609344
2018-07-17T00:25:39.485Z,1.609344
2018-07-17T00:25:52.034Z,3.218688
2018-07-17T00:26:04.444Z,1.609344
2018-07-17T00:26:16.837Z,1.609344
2018-07-17T00:26:29.256Z,1.609344
2018-07-17T00:26:41.664Z,1.609344
2018-07-17T00:26:54.110Z,1.609344
2018-07-17T00:27:06.517Z,1.609344
2018-07-17T00:27:18.918Z,3.218688
2018-07-17T00:27:31.321Z,3.218688
2018-07-17T00:27:43.718Z,3.218688
2018-07-17T00:27:56.108Z,3.218688
2018-07-17T00:28:08.523Z,3.218688
2018-07-17T00:28:20.940Z,3.218688
2018-07-17T00:28:33.352Z,1.609344
2018-07-17T00:28:45.751Z,1.609344
2018-07-17T00:28:58.169Z,1.609344
2018-07-17T00:29:10.578Z,3.218688
2018-07-17T00:29:22.981Z,3.218688
2018-07-17T00:29:35.390Z,1.609344
2018-07-17T00:29:47.951Z,3.218688
2018-07-17T00:30:00.362Z,1.609344
2018-07-17T00:30:12.766Z,1.609344
2018-07-17T00:30:25.171Z,1.609344
2018-07-17T00:30:37.585Z,0
2018-07-17T00:30:50.064Z,1.609344
2018-07-17T00:31:02.500Z,3.218688
2018-07-17T00:31:15.003Z,1.609344
2018-07-17T00:31:27.471Z,1.609344
2018-07-17T00:31:39.864Z,1.609344
2018-07-17T00:31:52.268Z,3.218688
2018-07-17T00:32:04.662Z,1.609344
2018-07-17T00:32:17.082Z,3.218688
2018-07-17T00:32:29.488Z,3.218688
2018-07-17T00:32:41.890Z,3.218688
2018-07-17T00:32:54.305Z,3.218688
2018-07-17T00:33:06.703Z,6.437376
2018-07-17T00:33:19.145Z,3.218688
2018-07-17T00:33:31.548Z,3.218688
2018-07-17T00:33:43.942Z,1.609344
2018-07-17T00:33:56.348Z,4.828032
2018-07-17T00:34:08.865Z,3.218688
2018-07-17T00:34:21.279Z,3.218688
2018-07-17T00:34:33.672Z,3.218688
2018-07-17T00:34:46.100Z,1.609344
2018-07-17T00:34:58.510Z,1.609344
2018-07-17T00:35:10.967Z,3.218688
2018-07-17T00:35:23.356Z,1.609344
2018-07-17T00:35:35.744Z,1.609344
2018-07-17T00:35:48.191Z,3.218688
2018-07-17T00:36:00.578Z,1.609344
2018-07-17T00:36:13.054Z,1.609344
2018-07-17T00:36:25.491Z,3.218688
2018-07-17T00:36:37.896Z,1.609344
2018-07-17T00:36:50.283Z,1.609344
2018-07-17T00:37:02.741Z,1.609344
2018-07-17T00:37:15.153Z,0
2018-07-17T00:37:27.555Z,0
2018-07-17T00:37:39.961Z,1.609344
2018-07-17T00:37:52.468Z,1.609344
2018-07-17T00:38:04.885Z,1.609344
2018-07-17T00:38:17.286Z,1.609344
2018-07-17T00:38:29.675Z,3.218688
2018-07-17T00:38:42.077Z,4.828032
2018-07-17T00:38:54.483Z,4.828032
2018-07-17T00:39:06.968Z,3.218688
2018-07-17T00:39:19.349Z,1.609344
2018-07-17T00:39:31.765Z,0
2018-07-17T00:39:44.172Z,3.218688
2018-07-17T00:39:56.567Z,3.218688
2018-07-17T00:40:08.984Z,1.609344
2018-07-17T00:40:21.384Z,3.218688
2018-07-17T00:40:33.849Z,3.218688
2018-07-17T00:40:46.242Z,3.218688
2018-07-17T00:40:58.640Z,1.609344
2018-07-17T00:41:11.068Z,0
2018-07-17T00:41:23.484Z,0
2018-07-17T00:41:35.917Z,0
2018-07-17T00:41:48.346Z,0
2018-07-17T00:42:00.752Z,1.609344
2018-07-17T00:42:13.166Z,3.218688
2018-07-17T00:42:25.587Z,1.609344
2018-07-17T00:42:38.006Z,1.609344
2018-07-17T00:42:50.422Z,3.218688
2018-07-17T00:43:02.840Z,1.609344
2018-07-17T00:43:15.250Z,1.609344
2018-07-17T00:43:27.672Z,3.218688
2018-07-17T00:43:40.076Z,6.437376
2018-07-17T00:43:52.513Z,4.828032
2018-07-17T00:44:05.009Z,3.218688
2018-07-17T00:44:17.475Z,3.218688
2018-07-17T00:44:29.876Z,1.609344
2018-07-17T00:44:42.295Z,1.609344
2018-07-17T00:44:54.687Z,1.609344
2018-07-17T00:45:07.114Z,3.218688
2018-07-17T00:45:19.533Z,4.828032
2018-07-17T00:45:31.937Z,3.218688
2018-07-17T00:45:44.367Z,6.437376
2018-07-17T00:45:56.779Z,3.218688
2018-07-17T00:46:09.196Z,3.218688
2018-07-17T00:46:21.596Z,3.218688
2018-07-17T00:46:34.010Z,3.218688
2018-07-17T00:46:46.422Z,3.218688
2018-07-17T00:46:58.851Z,3.218688
2018-07-17T00:47:11.278Z,1.609344
2018-07-17T00:47:23.664Z,1.609344
2018-07-17T00:47:36.081Z,4.828032
2018-07-17T00:47:48.469Z,3.218688
2018-07-17T00:48:01.025Z,3.218688
2018-07-17T00:48:13.492Z,1.609344
2018-07-17T00:48:25.910Z,4.828032
2018-07-17T00:48:38.316Z,1.609344
2018-07-17T00:48:50.813Z,1.609344
2018-07-17T00:49:03.218Z,4.828032
2018-07-17T00:49:15.610Z,6.437376
2018-07-17T00:49:28.041Z,3.218688
2018-07-17T00:49:40.518Z,3.218688
2018-07-17T00:49:52.912Z,3.218688
2018-07-17T00:50:05.332Z,3.218688
2018-07-17T00:50:17.748Z,1.609344
2018-07-17T00:50:30.135Z,3.218688
2018-07-17T00:50:42.542Z,3.218688
2018-07-17T00:50:54.953Z,4.828032
2018-07-17T00:51:07.356Z,3.218688
2018-07-17T00:51:19.824Z,1.609344
2018-07-17T00:51:32.221Z,3.218688
2018-07-17T00:51:44.644Z,1.609344
2018-07-17T00:51:57.057Z,3.218688
2018-07-17T00:52:09.450Z,3.218688
2018-07-17T00:52:21.842Z,1.609344
2018-07-17T00:52:34.286Z,3.218688
2018-07-17T00:52:46.696Z,6.437376
2018-07-17T00:52:59.312Z,8.04672
2018-07-17T00:53:11.733Z,3.218688
2018-07-17T00:53:24.150Z,3.218688
2018-07-17T00:53:36.681Z,6.437376
2018-07-17T00:53:49.096Z,3.218688
2018-07-17T00:54:01.599Z,3.218688
2018-07-17T00:54:14.023Z,4.828032
2018-07-17T00:54:26.438Z,6.437376
2018-07-17T00:54:38.829Z,3.218688
2018-07-17T00:54:51.290Z,3.218688
2018-07-17T00:55:03.883Z,6.437376
2018-07-17T00:55:16.493Z,3.218688
2018-07-17T00:55:28.877Z,3.218688
2018-07-17T00:55:41.891Z,1.609344
2018-07-17T00:55:54.776Z,1.609344
2018-07-17T00:56:07.179Z,1.609344
2018-07-17T00:56:19.573Z,6.437376
2018-07-17T00:56:31.973Z,6.437376
2018-07-17T00:56:44.371Z,8.04672
2018-07-17T00:56:56.777Z,3.218688
2018-07-17T00:57:09.187Z,4.828032
2018-07-17T00:57:21.592Z,3.218688
2018-07-17T00:57:34.030Z,1.609344
2018-07-17T00:57:46.514Z,1.609344
2018-07-17T00:57:58.944Z,1.609344
2018-07-17T00:58:11.378Z,1.609344
2018-07-17T00:58:23.788Z,3.218688
2018-07-17T00:58:36.189Z,4.828032
2018-07-17T00:58:48.633Z,3.218688
2018-07-17T00:59:01.029Z,3.218688
2018-07-17T00:59:13.439Z,3.218688
2018-07-17T00:59:25.834Z,1.609344
2018-07-17T00:59:38.275Z,3.218688
2018-07-17T00:59:50.718Z,3.218688
2018-07-17T01:00:03.125Z,3.218688
2018-07-17T01:00:15.752Z,1.609344
2018-07-17T01:00:28.185Z,3.218688
2018-07-17T01:00:40.590Z,1.609344
2018-07-17T01:00:53.015Z,3.218688
2018-07-17T01:01:05.965Z,1.609344
2018-07-17T01:01:19.440Z,3.218688
2018-07-17T01:01:31.872Z,6.437376
2018-07-17T01:01:44.268Z,3.218688
2018-07-17T01:01:56.935Z,3.218688
2018-07-17T01:02:09.366Z,3.218688
2018-07-17T01:02:21.823Z,1.609344
2018-07-17T01:02:34.228Z,1.609344
2018-07-17T01:02:46.639Z,3.218688
2018-07-17T01:02:59.062Z,3.218688
2018-07-17T01:03:11.499Z,1.609344
2018-07-17T01:03:23.914Z,3.218688
2018-07-17T01:03:36.418Z,3.218688
2018-07-17T01:03:48.863Z,8.04672
2018-07-17T01:04:01.271Z,3.218688
2018-07-17T01:04:13.752Z,1.609344
2018-07-17T01:04:26.187Z,1.609344
2018-07-17T01:04:38.617Z,1.609344
2018-07-17T01:04:51.294Z,6.437376
2018-07-17T01:05:03.695Z,3.218688
2018-07-17T01:05:16.087Z,8.04672
2018-07-17T01:05:28.500Z,8.04672
2018-07-17T01:05:40.917Z,8.04672
2018-07-17T01:05:53.351Z,4.828032
2018-07-17T01:06:05.754Z,6.437376
2018-07-17T01:06:18.221Z,3.218688
2018-07-17T01:06:30.692Z,4.828032
2018-07-17T01:06:43.105Z,6.437376
2018-07-17T01:06:55.610Z,3.218688
2018-07-17T01:07:08.748Z,3.218688
2018-07-17T01:07:21.810Z,3.218688
2018-07-17T01:07:34.394Z,3.218688
2018-07-17T01:07:46.804Z,3.218688
2018-07-17T01:07:59.208Z,6.437376
2018-07-17T01:08:11.603Z,3.218688
2018-07-17T01:08:24.035Z,1.609344
2018-07-17T01:08:36.441Z,4.828032
2018-07-17T01:08:48.880Z,3.218688
2018-07-17T01:09:01.278Z,3.218688
2018-07-17T01:09:13.686Z,3.218688
2018-07-17T01:09:26.084Z,3.218688
2018-07-17T01:09:38.567Z,4.828032
2018-07-17T01:09:50.956Z,6.437376
2018-07-17T01:10:03.384Z,6.437376
2018-07-17T01:10:15.786Z,6.437376
2018-07-17T01:10:28.206Z,6.437376
2018-07-17T01:10:40.608Z,8.04672
2018-07-17T01:10:53.013Z,9.656064
2018-07-17T01:11:05.418Z,8.04672
2018-07-17T01:11:17.832Z,8.04672
2018-07-17T01:11:30.241Z,6.437376
2018-07-17T01:11:42.697Z,6.437376
2018-07-17T01:11:55.366Z,4.828032
2018-07-17T01:12:07.769Z,6.437376
2018-07-17T01:12:20.236Z,6.437376
2018-07-17T01:12:32.632Z,3.218688
2018-07-17T01:12:45.105Z,6.437376
2018-07-17T01:12:57.510Z,6.437376
2018-07-17T01:13:10.184Z,3.218688
2018-07-17T01:13:22.599Z,3.218688
2018-07-17T01:13:35.013Z,6.437376
2018-07-17T01:13:47.414Z,3.218688
2018-07-17T01:13:59.823Z,4.828032
2018-07-17T01:14:12.220Z,6.437376
2018-07-17T01:14:24.617Z,3.218688
2018-07-17T01:14:37.019Z,1.609344
2018-07-17T01:14:49.421Z,1.609344
2018-07-17T01:15:01.848Z,3.218688
2018-07-17T01:15:14.303Z,6.437376
2018-07-17T01:15:26.712Z,3.218688
2018-07-17T01:15:39.117Z,6.437376
2018-07-17T01:15:51.538Z,6.437376
2018-07-17T01:16:03.938Z,6.437376
2018-07-17T01:16:16.360Z,1.609344
2018-07-17T01:16:28.753Z,1.609344
2018-07-17T01:16:41.171Z,1.609344
2018-07-17T01:16:53.566Z,3.218688
2018-07-17T01:17:05.980Z,3.218688
2018-07-17T01:17:18.368Z,6.437376
2018-07-17T01:17:30.772Z,8.04672
2018-07-17T01:17:43.199Z,8.04672
2018-07-17T01:17:55.797Z,3.218688
2018-07-17T01:18:08.218Z,3.218688
2018-07-17T01:18:20.623Z,3.218688
2018-07-17T01:18:33.036Z,3.218688
2018-07-17T01:18:45.424Z,1.609344
2018-07-17T01:18:57.844Z,3.218688
2018-07-17T01:19:10.238Z,3.218688
2018-07-17T01:19:22.636Z,4.828032
2018-07-17T01:19:35.194Z,3.218688
2018-07-17T01:19:47.596Z,4.828032
2018-07-17T01:19:59.987Z,3.218688
2018-07-17T01:20:12.379Z,3.218688
2018-07-17T01:20:24.777Z,9.656064
2018-07-17T01:20:37.259Z,8.04672
2018-07-17T01:20:49.652Z,6.437376
2018-07-17T01:21:02.042Z,3.218688
2018-07-17T01:21:14.450Z,6.437376
2018-07-17T01:21:26.859Z,6.437376
2018-07-17T01:21:39.275Z,3.218688
2018-07-17T01:21:51.677Z,3.218688
2018-07-17T01:22:04.079Z,3.218688
2018-07-17T01:22:16.462Z,1.609344
2018-07-17T01:22:28.848Z,3.218688
2018-07-17T01:22:41.299Z,3.218688
2018-07-17T01:22:53.695Z,1.609344
2018-07-17T01:23:06.155Z,3.218688
2018-07-17T01:23:18.604Z,3.218688
2018-07-17T01:23:31.023Z,3.218688
2018-07-17T01:23:43.445Z,3.218688
2018-07-17T01:23:55.832Z,1.609344
2018-07-17T01:24:08.265Z,8.04672
2018-07-17T01:24:20.660Z,6.437376
2018-07-17T01:24:33.069Z,6.437376
2018-07-17T01:24:45.498Z,4.828032
2018-07-17T01:24:57.972Z,6.437376
2018-07-17T01:25:10.372Z,8.04672
2018-07-17T01:25:22.765Z,6.437376
2018-07-17T01:25:35.162Z,4.828032
2018-07-17T01:25:47.900Z,3.218688
2018-07-17T01:26:00.311Z,1.609344
2018-07-17T01:26:12.729Z,3.218688
2018-07-17T01:26:25.131Z,4.828032
2018-07-17T01:26:37.526Z,3.218688
2018-07-17T01:26:49.947Z,6.437376
2018-07-17T01:27:02.357Z,8.04672
2018-07-17T01:27:14.752Z,6.437376
2018-07-17T01:27:27.175Z,1.609344
2018-07-17T01:27:39.597Z,1.609344
2018-07-17T01:27:52.007Z,3.218688
2018-07-17T01:28:04.456Z,3.218688
2018-07-17T01:28:16.922Z,3.218688
2018-07-17T01:28:29.323Z,3.218688
2018-07-17T01:28:41.720Z,4.828032
2018-07-17T01:28:54.105Z,6.437376
2018-07-17T01:29:06.486Z,4.828032
2018-07-17T01:29:18.877Z,9.656064
2018-07-17T01:29:31.306Z,9.656064
2018-07-17T01:29:43.855Z,6.437376
2018-07-17T01:29:56.251Z,3.218688
2018-07-17T01:30:08.656Z,3.218688
2018-07-17T01:30:21.067Z,3.218688
2018-07-17T01:30:33.471Z,4.828032
2018-07-17T01:30:45.892Z,6.437376
2018-07-17T01:30:58.290Z,3.218688
2018-07-17T01:31:10.675Z,3.218688
2018-07-17T01:31:23.257Z,3.218688
2018-07-17T01:31:35.721Z,1.609344
2018-07-17T01:31:48.196Z,3.218688
2018-07-17T01:32:00.626Z,6.437376
2018-07-17T01:32:13.019Z,1.609344
2018-07-17T01:32:25.426Z,9.656064
2018-07-17T01:32:37.832Z,8.04672
2018-07-17T01:32:50.262Z,3.218688
2018-07-17T01:33:02.674Z,8.04672
2018-07-17T01:33:15.088Z,8.04672
2018-07-17T01:33:27.486Z,4.828032
2018-07-17T01:33:39.884Z,3.218688
2018-07-17T01:33:52.331Z,3.218688
2018-07-17T01:34:04.745Z,3.218688
2018-07-17T01:34:17.136Z,4.828032
2018-07-17T01:34:29.542Z,6.437376
2018-07-17T01:34:41.925Z,6.437376
2018-07-17T01:34:54.344Z,1.609344
2018-07-17T01:35:06.737Z,1.609344
2018-07-17T01:35:19.160Z,3.218688
2018-07-17T01:35:31.576Z,1.609344
2018-07-17T01:35:43.989Z,1.609344
2018-07-17T01:35:56.392Z,1.609344
2018-07-17T01:36:08.805Z,1.609344
2018-07-17T01:36:21.244Z,3.218688
2018-07-17T01:36:33.648Z,3.218688
2018-07-17T01:36:46.042Z,1.609344
2018-07-17T01:36:58.421Z,1.609344
2018-07-17T01:37:10.806Z,1.609344
2018-07-17T01:37:23.218Z,1.609344
2018-07-17T01:37:35.619Z,1.609344
2018-07-17T01:37:48.033Z,1.609344
2018-07-17T01:38:00.423Z,0
2018-07-17T01:38:12.832Z,4.828032
2018-07-17T01:38:25.771Z,4.828032
2018-07-17T01:38:39.212Z,3.218688
2018-07-17T01:38:51.629Z,8.04672
2018-07-17T01:39:04.060Z,6.437376
2018-07-17T01:39:16.459Z,8.04672
2018-07-17T01:39:28.889Z,6.437376
2018-07-17T01:39:41.294Z,1.609344
2018-07-17T01:39:53.681Z,3.218688
2018-07-17T01:40:06.100Z,3.218688
2018-07-17T01:40:18.521Z,3.218688
2018-07-17T01:40:30.924Z,0
2018-07-17T01:40:43.322Z,1.609344
2018-07-17T01:40:55.712Z,1.609344
2018-07-17T01:41:08.117Z,1.609344
2018-07-17T01:41:20.547Z,1.609344
2018-07-17T01:41:32.976Z,1.609344
2018-07-17T01:41:45.397Z,1.609344
2018-07-17T01:41:57.810Z,1.609344
2018-07-17T01:42:10.221Z,3.218688
2018-07-17T01:42:22.637Z,8.04672
2018-07-17T01:42:35.052Z,8.04672
2018-07-17T01:42:47.478Z,6.437376
2018-07-17T01:43:00.212Z,6.437376
2018-07-17T01:43:13.526Z,3.218688
2018-07-17T01:43:25.937Z,6.437376
2018-07-17T01:43:38.353Z,6.437376
2018-07-17T01:43:50.798Z,6.437376
2018-07-17T01:44:03.195Z,6.437376
2018-07-17T01:44:15.600Z,8.04672
2018-07-17T01:44:28.021Z,8.04672
2018-07-17T01:44:40.444Z,3.218688
2018-07-17T01:44:52.915Z,1.609344
2018-07-17T01:45:05.363Z,3.218688
2018-07-17T01:45:17.773Z,3.218688
2018-07-17T01:45:30.257Z,3.218688
2018-07-17T01:45:42.725Z,6.437376
2018-07-17T01:45:55.184Z,6.437376
2018-07-17T01:46:07.619Z,6.437376
2018-07-17T01:46:20.102Z,6.437376
2018-07-17T01:46:32.512Z,3.218688
2018-07-17T01:46:44.973Z,3.218688
2018-07-17T01:46:57.398Z,4.828032
2018-07-17T01:47:09.795Z,3.218688
2018-07-17T01:47:22.195Z,1.609344
2018-07-17T01:47:34.613Z,3.218688
2018-07-17T01:47:46.997Z,3.218688
2018-07-17T01:47:59.447Z,6.437376
2018-07-17T01:48:11.881Z,4.828032
2018-07-17T01:48:24.295Z,6.437376
2018-07-17T01:48:36.685Z,1.609344
2018-07-17T01:48:49.173Z,1.609344
2018-07-17T01:49:01.624Z,1.609344
2018-07-17T01:49:14.033Z,1.609344
2018-07-17T01:49:26.427Z,6.437376
2018-07-17T01:49:38.842Z,6.437376
2018-07-17T01:49:51.255Z,4.828032
2018-07-17T01:50:03.731Z,3.218688
2018-07-17T01:50:16.144Z,1.609344
2018-07-17T01:50:28.554Z,8.04672
2018-07-17T01:50:40.955Z,8.04672
2018-07-17T01:50:53.356Z,3.218688
2018-07-17T01:51:05.762Z,1.609344
2018-07-17T01:51:18.420Z,3.218688
2018-07-17T01:51:30.846Z,6.437376
2018-07-17T01:51:43.256Z,3.218688
2018-07-17T01:51:55.693Z,3.218688
2018-07-17T01:52:08.155Z,3.218688
2018-07-17T01:52:20.545Z,1.609344
2018-07-17T01:52:32.967Z,1.609344
2018-07-17T01:52:45.348Z,1.609344
2018-07-17T01:52:57.747Z,1.609344
2018-07-17T01:53:10.153Z,3.218688
2018-07-17T01:53:22.554Z,1.609344
2018-07-17T01:53:34.984Z,1.609344
2018-07-17T01:53:47.396Z,1.609344
2018-07-17T01:53:59.805Z,3.218688
2018-07-17T01:54:12.190Z,1.609344
2018-07-17T01:54:24.602Z,1.609344
2018-07-17T01:54:37.050Z,3.218688
2018-07-17T01:54:49.464Z,6.437376
2018-07-17T01:55:01.859Z,6.437376
2018-07-17T01:55:14.512Z,8.04672
2018-07-17T01:55:26.912Z,9.656064
2018-07-17T01:55:39.306Z,6.437376
2018-07-17T01:55:51.706Z,6.437376
2018-07-17T01:56:04.107Z,3.218688
2018-07-17T01:56:16.505Z,3.218688
2018-07-17T01:56:28.913Z,6.437376
2018-07-17T01:56:41.325Z,8.04672
2018-07-17T01:56:53.804Z,4.828032
2018-07-17T01:57:06.236Z,3.218688
2018-07-17T01:57:18.628Z,3.218688
2018-07-17T01:57:31.077Z,8.04672
2018-07-17T01:57:43.470Z,6.437376
2018-07-17T01:57:55.918Z,1.609344
2018-07-17T01:58:08.313Z,6.437376
2018-07-17T01:58:20.729Z,6.437376
2018-07-17T01:58:33.129Z,6.437376
2018-07-17T01:58:45.570Z,6.437376
2018-07-17T01:58:57.962Z,6.437376
2018-07-17T01:59:10.370Z,3.218688
2018-07-17T01:59:22.801Z,4.828032
2018-07-17T01:59:35.207Z,3.218688
2018-07-17T01:59:47.609Z,6.437376
2018-07-17T02:00:00.001Z,3.218688
2018-07-17T02:00:12.529Z,3.218688
2018-07-17T02:00:25.156Z,6.437376
2018-07-17T02:00:37.580Z,8.04672
2018-07-17T02:00:49.980Z,8.04672
2018-07-17T02:01:02.482Z,3.218688
2018-07-17T02:01:14.925Z,3.218688
2018-07-17T02:01:27.339Z,1.609344
2018-07-17T02:01:39.820Z,3.218688
2018-07-17T02:01:52.314Z,4.828032
2018-07-17T02:02:04.735Z,1.609344
2018-07-17T02:02:17.214Z,1.609344
2018-07-17T02:02:29.653Z,3.218688
2018-07-17T02:02:42.111Z,4.828032
2018-07-17T02:02:54.562Z,6.437376
2018-07-17T02:03:07.021Z,1.609344
2018-07-17T02:03:19.423Z,1.609344
2018-07-17T02:03:31.826Z,3.218688
2018-07-17T02:03:44.266Z,1.609344
2018-07-17T02:03:56.720Z,1.609344
2018-07-17T02:04:09.135Z,3.218688
2018-07-17T02:04:21.593Z,3.218688
2018-07-17T02:04:34.039Z,8.04672
2018-07-17T02:04:46.620Z,8.04672
2018-07-17T02:05:00.528Z,3.218688
2018-07-17T02:05:13.054Z,8.04672
2018-07-17T02:05:25.449Z,8.04672
2018-07-17T02:05:37.850Z,6.437376
2018-07-17T02:05:50.281Z,9.656064
2018-07-17T02:06:02.689Z,8.04672
2018-07-17T02:06:15.130Z,6.437376
2018-07-17T02:06:27.536Z,8.04672
2018-07-17T02:06:40.000Z,11.265408
2018-07-17T02:06:52.444Z,9.656064
2018-07-17T02:07:04.845Z,9.656064
2018-07-17T02:07:17.234Z,6.437376
2018-07-17T02:07:29.758Z,6.437376
2018-07-17T02:07:42.156Z,8.04672
2018-07-17T02:07:54.661Z,6.437376
2018-07-17T02:08:07.042Z,4.828032
2018-07-17T02:08:19.439Z,4.828032
2018-07-17T02:08:31.832Z,8.04672
2018-07-17T02:08:44.211Z,6.437376
2018-07-17T02:08:56.615Z,9.656064
2018-07-17T02:09:09.054Z,8.04672
2018-07-17T02:09:21.466Z,3.218688
2018-07-17T02:09:33.888Z,3.218688
2018-07-17T02:09:46.301Z,4.828032
2018-07-17T02:09:58.695Z,3.218688
2018-07-17T02:10:11.117Z,1.609344
2018-07-17T02:10:23.520Z,3.218688
2018-07-17T02:10:35.934Z,6.437376
2018-07-17T02:10:48.333Z,8.04672
2018-07-17T02:11:00.759Z,8.04672
2018-07-17T02:11:13.147Z,6.437376
2018-07-17T02:11:25.536Z,8.04672
2018-07-17T02:11:37.941Z,9.656064
2018-07-17T02:11:50.400Z,6.437376
2018-07-17T02:12:02.819Z,9.656064
2018-07-17T02:12:15.310Z,6.437376
2018-07-17T02:12:27.922Z,8.04672
2018-07-17T02:12:40.301Z,8.04672
2018-07-17T02:12:52.691Z,6.437376
2018-07-17T02:13:05.180Z,6.437376
2018-07-17T02:13:17.602Z,4.828032
2018-07-17T02:13:30.035Z,3.218688
2018-07-17T02:13:42.434Z,3.218688
2018-07-17T02:13:54.840Z,3.218688
2018-07-17T02:14:07.270Z,8.04672
2018-07-17T02:14:19.677Z,6.437376
2018-07-17T02:14:32.075Z,9.656064
2018-07-17T02:14:44.480Z,8.04672
2018-07-17T02:14:56.879Z,4.828032
2018-07-17T02:15:09.292Z,3.218688
2018-07-17T02:15:21.703Z,8.04672
2018-07-17T02:15:34.115Z,6.437376
2018-07-17T02:15:46.514Z,6.437376
2018-07-17T02:15:58.913Z,6.437376
2018-07-17T02:16:11.319Z,4.828032
2018-07-17T02:16:23.723Z,3.218688
2018-07-17T02:16:36.126Z,3.218688
2018-07-17T02:16:48.540Z,4.828032
2018-07-17T02:17:00.950Z,4.828032
2018-07-17T02:17:13.369Z,3.218688
2018-07-17T02:17:25.777Z,3.218688
2018-07-17T02:17:38.188Z,3.218688
2018-07-17T02:17:50.598Z,1.609344
2018-07-17T02:18:03.060Z,1.609344
2018-07-17T02:18:15.458Z,1.609344
2018-07-17T02:18:27.915Z,3.218688
2018-07-17T02:18:40.416Z,1.609344
2018-07-17T02:18:53.936Z,1.609344
2018-07-17T02:19:06.490Z,1.609344
2018-07-17T02:19:18.883Z,1.609344
2018-07-17T02:19:31.319Z,1.609344
2018-07-17T02:19:43.729Z,1.609344
2018-07-17T02:19:56.218Z,1.609344
2018-07-17T02:20:08.623Z,0
2018-07-17T02:20:21.021Z,1.609344
2018-07-17T02:20:33.424Z,1.609344
2018-07-17T02:20:45.937Z,1.609344
2018-07-17T02:20:58.340Z,1.609344
2018-07-17T02:21:10.750Z,1.609344
2018-07-17T02:21:23.130Z,1.609344
2018-07-17T02:21:35.542Z,1.609344
2018-07-17T02:21:47.972Z,3.218688
2018-07-17T02:22:00.372Z,1.609344
2018-07-17T02:22:12.773Z,4.828032
2018-07-17T02:22:25.214Z,3.218688
2018-07-17T02:22:37.617Z,3.218688
2018-07-17T02:22:50.031Z,3.218688
2018-07-17T02:23:02.465Z,8.04672
2018-07-17T02:23:14.860Z,3.218688
2018-07-17T02:23:27.257Z,1.609344
2018-07-17T02:23:39.646Z,3.218688
2018-07-17T02:23:52.033Z,6.437376
2018-07-17T02:24:04.433Z,3.218688
2018-07-17T02:24:16.841Z,6.437376
2018-07-17T02:24:29.229Z,3.218688
2018-07-17T02:24:41.630Z,3.218688
2018-07-17T02:24:54.036Z,1.609344
2018-07-17T02:25:06.467Z,0
2018-07-17T02:25:18.852Z,0
2018-07-17T02:25:31.318Z,1.609344
2018-07-17T02:25:43.933Z,3.218688
2018-07-17T02:25:56.348Z,3.218688
2018-07-17T02:26:08.911Z,3.218688
2018-07-17T02:26:21.323Z,3.218688
2018-07-17T02:26:33.726Z,1.609344
2018-07-17T02:26:46.141Z,1.609344
2018-07-17T02:26:58.565Z,0
2018-07-17T02:27:11.062Z,1.609344